Time;durP1;ratioP1;P1;durP2;ratioP2;P2;SDS_P1;SDS_P2;PMS_P1;PMS_P2;Temp;Humidity;BMP_temperature;BMP_pressure;BME280_temperature;BME280_humidity;BME280_pressure;Samples;Min_cycle;Max_cycle;Signal;HPM_P1;HPM_P2
2021/10/02 00:35:29;;;;;;;2.30;0.52;;;;;;;10.30;68.35;99703.19;5055832;28;20109;-77
2021/10/02 00:38:09;;;;;;;2.25;0.70;;;;;;;10.29;68.46;99700.78;5087280;28;20480;-77
2021/10/02 00:46:13;;;;;;;3.92;0.70;;;;;;;10.30;68.83;99683.81;5061913;28;20063;-77
2021/10/02 00:48:40;;;;;;;4.35;0.90;;;;;;;10.32;68.60;99675.97;5084915;28;20143;-77
2021/10/02 00:51:08;;;;;;;6.78;1.00;;;;;;;10.36;68.54;99656.63;5085444;28;20074;-78
2021/10/02 00:53:35;;;;;;;5.32;0.75;;;;;;;10.36;68.56;99653.88;5087452;28;20035;-77
2021/10/02 00:56:02;;;;;;;0.95;0.57;;;;;;;10.35;68.71;99649.53;5088971;28;20043;-76
2021/10/02 00:58:30;;;;;;;8.85;0.70;;;;;;;10.34;68.68;99645.97;5087686;28;20059;-77
2021/10/02 01:01:02;;;;;;;1.63;0.50;;;;;;;10.32;68.88;99642.75;5086588;28;20048;-77
2021/10/02 01:03:28;;;;;;;;;;;;;;;10.28;68.90;99636.34;5087585;28;20052;-76
2021/10/02 01:06:09;;;;;;;3.25;1.13;;;;;;;10.29;68.66;99623.34;5086684;28;19923;-77
2021/10/02 01:08:42;;;;;;;4.97;2.15;;;;;;;10.28;68.79;99617.00;5087728;28;20510;-76
2021/10/02 01:11:35;;;;;;;8.30;1.38;;;;;;;10.29;68.70;99612.28;5086095;28;20055;-77
2021/10/02 01:14:14;;;;;;;6.68;0.80;;;;;;;10.29;68.78;99615.03;5088365;28;20067;-77
2021/10/02 01:16:44;;;;;;;3.10;0.57;;;;;;;10.30;68.92;99611.09;5085353;28;20073;-76
2021/10/02 01:19:28;;;;;;;5.20;0.75;;;;;;;10.33;68.84;99610.34;5087128;28;20051;-77
2021/10/02 01:22:09;;;;;;;4.10;0.90;;;;;;;10.32;68.73;99604.03;5086961;28;20040;-76
2021/10/02 01:24:57;;;;;;;7.15;0.70;;;;;;;10.30;69.00;99592.53;5087546;28;20050;-76
2021/10/02 01:27:57;;;;;;;8.65;1.85;;;;;;;10.30;69.01;99581.44;5085905;28;20484;-77
2021/10/02 01:33:44;;;;;;;5.90;0.88;;;;;;;10.30;68.98;99564.06;5085434;28;20062;-76
2021/10/02 01:36:31;;;;;;;3.55;0.73;;;;;;;10.26;68.92;99566.78;5087366;28;20048;-77
2021/10/02 01:47:36;;;;;;;5.55;0.90;;;;;;;10.17;68.97;99524.75;5086653;28;20152;-76
2021/10/02 01:50:04;;;;;;;4.68;0.70;;;;;;;10.18;68.92;99509.75;5083342;28;20400;-76
2021/10/02 01:52:37;;;;;;;5.88;0.70;;;;;;;10.15;69.15;99499.44;5087263;28;20052;-76
2021/10/02 01:55:08;;;;;;;8.07;2.95;;;;;;;10.18;69.20;99495.94;5086361;28;20036;-77
2021/10/02 01:57:40;;;;;;;3.67;0.80;;;;;;;10.19;69.07;99491.97;5085680;28;20036;-77
2021/10/02 02:00:09;;;;;;;9.82;1.13;;;;;;;10.20;69.14;99477.00;5085455;28;20036;-76
2021/10/02 02:02:38;;;;;;;5.57;1.15;;;;;;;10.19;69.09;99486.44;5085916;28;20036;-76
2021/10/02 02:05:10;;;;;;;4.72;0.90;;;;;;;10.18;69.12;99467.47;5086167;28;20089;-77
2021/10/02 02:07:40;;;;;;;9.98;1.23;;;;;;;10.18;69.11;99451.69;5084427;28;20040;-76
2021/10/02 02:10:08;;;;;;;5.30;2.42;;;;;;;10.18;69.21;99448.91;5084338;28;20046;-76
2021/10/02 02:12:36;;;;;;;9.05;2.63;;;;;;;10.19;69.07;99449.72;5086339;28;20456;-76
2021/10/02 02:15:07;;;;;;;9.23;2.50;;;;;;;10.13;69.51;99443.72;5086599;28;20052;-76
2021/10/02 02:17:41;;;;;;;11.25;4.15;;;;;;;10.12;69.25;99438.50;5067941;28;20056;-76
2021/10/02 02:20:10;;;;;;;8.13;2.03;;;;;;;10.11;69.28;99434.16;5085871;28;20649;-77
2021/10/02 02:22:37;;;;;;;3.80;0.88;;;;;;;10.09;69.07;99431.75;5086435;28;20062;-76
2021/10/02 02:25:05;;;;;;;4.50;0.88;;;;;;;10.07;69.25;99431.34;5067198;28;20056;-76
2021/10/02 02:27:32;;;;;;;6.63;0.70;;;;;;;10.06;69.21;99426.97;5085824;28;20040;-77
2021/10/02 02:29:59;;;;;;;7.82;0.75;;;;;;;10.06;69.31;99420.66;5086062;28;20040;-77
2021/10/02 02:32:26;;;;;;;4.90;1.15;;;;;;;10.05;69.25;99417.09;5084901;28;20047;-76
2021/10/02 02:34:53;;;;;;;3.58;0.40;;;;;;;10.04;69.44;99418.25;5083853;28;20047;-77
2021/10/02 02:37:20;;;;;;;3.95;0.50;;;;;;;10.02;69.44;99426.13;5086080;28;20036;-77
2021/10/02 02:39:47;;;;;;;4.22;0.47;;;;;;;10.02;69.58;99420.59;5068046;28;20044;-76
2021/10/02 02:42:14;;;;;;;4.28;0.57;;;;;;;10.01;69.52;99413.47;5086853;28;20411;-76
2021/10/02 02:44:40;;;;;;;1.63;0.40;;;;;;;10.02;69.30;99409.53;5089705;28;20094;-76
2021/10/02 02:47:11;;;;;;;2.97;0.57;;;;;;;9.99;69.69;99410.28;5090271;28;20048;-77
2021/10/02 02:49:48;;;;;;;8.13;0.75;;;;;;;9.97;69.86;99400.78;5089383;28;20074;-76
2021/10/02 02:52:20;;;;;;;6.78;0.68;;;;;;;9.98;69.88;99394.84;5090422;28;20043;-77
2021/10/02 02:54:53;;;;;;;3.90;0.68;;;;;;;9.97;69.98;99396.03;5086620;28;20040;-77
2021/10/02 02:57:22;;;;;;;4.18;0.60;;;;;;;9.96;69.71;99394.44;5087210;28;20056;-77
2021/10/02 03:00:06;;;;;;;8.10;0.85;;;;;;;9.91;69.76;99386.47;5082590;28;20077;-77
2021/10/02 03:02:41;;;;;;;7.40;0.60;;;;;;;9.87;69.63;99374.59;5089290;28;20075;-76
2021/10/02 03:05:09;;;;;;;3.55;0.50;;;;;;;9.87;69.72;99365.50;5089375;28;20055;-76
2021/10/02 03:07:42;;;;;;;10.82;3.60;;;;;;;9.82;69.89;99358.31;5089709;28;20511;-76
2021/10/02 03:10:11;;;;;;;7.30;0.98;;;;;;;9.77;69.82;99353.91;5090231;28;20388;-76
2021/10/02 03:12:41;;;;;;;3.50;0.70;;;;;;;9.74;70.00;99359.38;5087617;28;20044;-76
2021/10/02 03:15:11;;;;;;;5.35;0.73;;;;;;;9.68;70.11;99347.88;5089077;28;20044;-77
2021/10/02 03:17:41;;;;;;;2.03;0.47;;;;;;;9.64;70.14;99337.91;5087657;28;20430;-76
2021/10/02 03:20:10;;;;;;;2.33;0.50;;;;;;;9.63;70.21;99333.56;5087557;28;20074;-77
2021/10/02 03:22:37;;;;;;;2.55;0.63;;;;;;;9.60;70.23;99320.50;5089376;28;20178;-76
2021/10/02 03:25:06;;;;;;;2.83;1.05;;;;;;;9.55;70.51;99312.53;5089036;28;20048;-77
2021/10/02 03:27:34;;;;;;;4.70;1.10;;;;;;;9.52;70.42;99308.53;5087897;28;20044;-76
2021/10/02 03:30:01;;;;;;;5.97;0.90;;;;;;;9.51;70.41;99292.31;5090148;28;20042;-77
2021/10/02 03:32:28;;;;;;;4.65;0.70;;;;;;;9.47;70.54;99283.22;5088008;28;20040;-76
2021/10/02 03:34:55;;;;;;;2.33;1.05;;;;;;;9.44;70.75;99286.72;5090145;28;20051;-76
2021/10/02 03:37:22;;;;;;;5.22;1.35;;;;;;;9.42;70.65;99273.28;5089027;28;20051;-76
2021/10/02 03:39:49;;;;;;;1.65;0.55;;;;;;;9.40;70.65;99261.03;5088174;28;20051;-76
2021/10/02 03:42:21;;;;;;;3.40;0.80;;;;;;;9.37;71.07;99253.47;5086669;28;20136;-76
2021/10/02 03:44:51;;;;;;;0.90;0.20;;;;;;;9.34;71.14;99241.22;5086856;28;20127;-76
2021/10/02 03:47:20;;;;;;;1.63;0.50;;;;;;;9.35;71.06;99239.22;5086554;28;20055;-76
2021/10/02 03:49:48;;;;;;;4.43;0.73;;;;;;;9.33;71.06;99242.38;5089081;28;20085;-76
2021/10/02 03:52:15;;;;;;;1.73;0.40;;;;;;;9.33;71.15;99233.28;5085968;28;20032;-76
2021/10/02 03:54:42;;;;;;;6.88;0.95;;;;;;;9.32;70.91;99234.47;5088227;28;20028;-77
2021/10/02 03:57:09;;;;;;;2.05;0.40;;;;;;;9.29;71.43;99233.25;5086820;28;20051;-76
2021/10/02 03:59:36;;;;;;;6.88;2.05;;;;;;;9.28;71.43;99225.31;5087946;28;20126;-75
2021/10/02 04:02:03;;;;;;;3.17;0.50;;;;;;;9.29;71.24;99221.41;5085822;28;20077;-76
2021/10/02 04:04:30;;;;;;;2.40;0.45;;;;;;;9.31;71.26;99208.00;5085477;28;20080;-76
2021/10/02 04:06:57;;;;;;;3.08;0.55;;;;;;;9.33;71.27;99200.13;5087336;28;20032;-76
2021/10/02 04:09:24;;;;;;;1.02;0.32;;;;;;;9.37;70.99;99195.47;5088586;28;20047;-76
2021/10/02 04:11:51;;;;;;;8.38;1.92;;;;;;;9.41;71.10;99185.25;5088449;28;20128;-76
2021/10/02 04:14:18;;;;;;;4.55;1.08;;;;;;;9.44;70.95;99185.31;5086852;28;20044;-76
2021/10/02 04:16:45;;;;;;;4.85;0.52;;;;;;;9.48;70.74;99177.03;5086818;28;20047;-76
2021/10/02 04:19:12;;;;;;;6.25;1.40;;;;;;;9.53;70.48;99155.41;5087122;28;20138;-76
2021/10/02 04:21:38;;;;;;;3.65;0.47;;;;;;;9.55;70.43;99144.81;5086614;28;20066;-77
2021/10/02 04:24:06;;;;;;;5.63;0.77;;;;;;;9.58;70.28;99132.19;5087910;28;20047;-76
2021/10/02 04:26:32;;;;;;;1.92;0.60;;;;;;;9.59;70.43;99119.97;5088191;28;20050;-77
2021/10/02 04:28:59;;;;;;;3.15;0.57;;;;;;;9.59;70.29;99111.66;5084570;28;20101;-76
2021/10/02 04:31:26;;;;;;;1.77;0.60;;;;;;;9.57;70.08;99100.22;5085871;28;20036;-76
2021/10/02 04:33:53;;;;;;;2.90;0.70;;;;;;;9.56;69.76;99099.41;5086809;28;20059;-76
2021/10/02 04:36:19;;;;;;;5.03;0.50;;;;;;;9.57;69.94;99083.63;5088646;28;20130;-76
2021/10/02 04:38:46;;;;;;;1.63;0.50;;;;;;;9.57;69.88;99078.09;5046049;28;1182647;-76
2021/10/02 04:41:13;;;;;;;5.65;1.77;;;;;;;9.56;69.68;99065.44;5087101;28;20043;-76
2021/10/02 04:43:41;;;;;;;3.95;0.60;;;;;;;9.58;69.59;99076.94;5087494;28;20098;-76
2021/10/02 04:46:09;;;;;;;1.20;0.55;;;;;;;9.58;69.77;99068.66;5088848;28;20036;-76
2021/10/02 04:48:37;;;;;;;6.63;0.63;;;;;;;9.60;69.81;99071.81;5088686;28;20434;-76
2021/10/02 04:51:06;;;;;;;4.43;0.60;;;;;;;9.61;69.70;99062.38;5085983;28;20408;-77
2021/10/02 04:53:32;;;;;;;4.32;0.60;;;;;;;9.59;69.71;99048.13;5087148;28;20051;-77
2021/10/02 04:56:00;;;;;;;3.55;0.60;;;;;;;9.58;69.83;99041.03;5088172;28;20040;-76
2021/10/02 04:58:27;;;;;;;7.35;3.10;;;;;;;9.58;69.77;99032.75;5084016;28;20416;-77
2021/10/02 05:00:55;;;;;;;0.45;0.22;;;;;;;9.58;70.12;99019.69;5086822;28;20040;-77
2021/10/02 05:03:22;;;;;;;2.05;0.30;;;;;;;9.62;69.95;99014.22;5087400;28;20102;-76
2021/10/02 05:05:48;;;;;;;2.38;0.52;;;;;;;9.62;70.04;99003.97;5085178;28;20040;-76
2021/10/02 05:08:15;;;;;;;1.95;0.52;;;;;;;9.64;69.87;98990.56;5085758;28;20134;-77
2021/10/02 05:10:43;;;;;;;7.40;2.35;;;;;;;9.65;70.00;98980.28;5085420;28;20496;-76
2021/10/02 05:13:10;;;;;;;1.52;0.60;;;;;;;9.65;70.16;98977.53;5087020;28;20044;-76
2021/10/02 05:15:38;;;;;;;3.30;0.60;;;;;;;9.64;70.21;98973.97;5085747;28;20062;-76
2021/10/02 05:18:04;;;;;;;5.65;0.70;;;;;;;9.64;70.38;98959.34;5085482;28;20044;-76
2021/10/02 05:20:31;;;;;;;3.40;1.10;;;;;;;9.67;70.40;98964.13;5085455;28;20097;-76
2021/10/02 05:22:58;;;;;;;4.18;1.10;;;;;;;9.70;70.46;98975.22;5086036;28;20047;-76
2021/10/02 05:25:25;;;;;;;7.32;1.52;;;;;;;9.72;70.50;98972.06;5087822;28;20047;-76
2021/10/02 05:27:52;;;;;;;7.50;1.13;;;;;;;9.72;70.83;98963.78;5086717;28;20581;-76
2021/10/02 05:30:18;;;;;;;6.95;1.20;;;;;;;9.75;71.22;98944.47;5087030;28;20483;-76
2021/10/02 05:32:45;;;;;;;9.95;1.55;;;;;;;9.78;71.18;98937.38;5087251;28;20040;-76
2021/10/02 05:35:12;;;;;;;4.45;0.65;;;;;;;9.80;71.39;98943.31;5087481;28;20064;-77
2021/10/02 05:37:39;;;;;;;5.38;1.23;;;;;;;9.83;71.71;98928.72;5086341;28;20071;-76
2021/10/02 05:40:07;;;;;;;3.70;0.80;;;;;;;9.88;71.69;98930.31;5086203;28;20066;-76
2021/10/02 05:42:33;;;;;;;5.80;1.05;;;;;;;9.89;72.06;98924.44;5086088;28;20048;-76
2021/10/02 05:45:00;;;;;;;5.35;0.93;;;;;;;9.90;72.45;98923.22;5085658;28;20109;-76
2021/10/02 05:47:27;;;;;;;3.28;0.63;;;;;;;9.90;72.65;98911.41;5086142;28;20050;-76
2021/10/02 05:49:54;;;;;;;4.85;0.77;;;;;;;9.92;72.92;98914.56;5085352;28;20040;-76
2021/10/02 05:52:21;;;;;;;4.57;0.88;;;;;;;9.93;73.00;98905.88;5087033;28;20809;-77
2021/10/02 05:54:47;;;;;;;5.32;0.90;;;;;;;9.94;73.47;98898.38;5084869;28;20032;-76
2021/10/02 05:57:14;;;;;;;3.25;0.52;;;;;;;9.95;73.55;98889.72;5085601;28;20492;-76
2021/10/02 05:59:41;;;;;;;7.82;2.75;;;;;;;9.97;73.46;98889.31;5068561;28;20056;-76
2021/10/02 06:02:07;;;;;;;6.47;0.70;;;;;;;9.95;73.79;98878.66;5085938;28;20483;-77
2021/10/02 06:04:34;;;;;;;2.10;0.70;;;;;;;9.96;73.92;98866.41;5087306;28;20361;-77
2021/10/02 06:07:01;;;;;;;4.18;0.70;;;;;;;9.93;74.32;98861.66;5084991;28;20085;-77
2021/10/02 06:09:28;;;;;;;4.25;1.10;;;;;;;9.94;74.13;98863.25;5086854;28;20051;-77
2021/10/02 06:11:54;;;;;;;13.98;1.38;;;;;;;9.95;74.37;98856.56;5085224;28;20130;-76
2021/10/02 06:14:21;;;;;;;6.95;1.35;;;;;;;9.99;74.31;98851.81;5087154;28;20582;-76
2021/10/02 06:16:48;;;;;;;2.70;0.60;;;;;;;10.01;74.32;98843.13;5085965;28;20130;-76
2021/10/02 06:19:17;;;;;;;3.05;0.68;;;;;;;10.00;74.53;98836.84;5086575;28;20529;-77
2021/10/02 06:21:44;;;;;;;10.48;1.00;;;;;;;10.01;74.50;98830.09;5086744;28;20052;-76
2021/10/02 06:24:13;;;;;;;8.75;1.33;;;;;;;10.04;74.48;98831.31;5086018;28;20046;-76
2021/10/02 06:26:39;;;;;;;5.50;0.60;;;;;;;10.07;74.69;98823.03;5084920;28;20066;-77
2021/10/02 06:29:07;;;;;;;7.88;1.50;;;;;;;10.11;74.52;98804.47;5085183;28;20052;-76
2021/10/02 06:31:38;;;;;;;6.25;0.90;;;;;;;10.15;74.68;98807.28;5081753;28;20935;-77
2021/10/02 06:34:04;;;;;;;6.82;2.13;;;;;;;10.20;74.79;98804.16;5083595;28;20047;-76
2021/10/02 06:36:32;;;;;;;4.20;1.00;;;;;;;10.22;74.75;98791.50;5087276;28;20043;-76
2021/10/02 06:38:59;;;;;;;5.20;0.85;;;;;;;10.26;74.80;98772.97;5086778;28;20070;-76
2021/10/02 06:41:26;;;;;;;11.98;1.35;;;;;;;10.30;74.54;98761.91;5086214;28;20492;-76
2021/10/02 06:43:53;;;;;;;6.32;1.05;;;;;;;10.33;74.85;98769.41;5084834;28;20040;-77
2021/10/02 06:46:24;;;;;;;4.78;1.10;;;;;;;10.35;74.78;98762.31;5084500;28;20479;-76
2021/10/02 06:48:51;;;;;;;2.72;0.73;;;;;;;10.34;75.07;98752.44;5085524;28;20079;-77
2021/10/02 06:51:17;;;;;;;4.78;1.48;;;;;;;10.36;74.98;98758.38;5086457;28;20040;-77
2021/10/02 06:53:44;;;;;;;4.30;1.15;;;;;;;10.36;75.25;98744.53;5086468;28;20048;-77
2021/10/02 06:56:11;;;;;;;4.38;0.85;;;;;;;10.35;75.34;98748.47;5083205;28;20044;-77
2021/10/02 06:58:38;;;;;;;5.88;1.17;;;;;;;10.34;75.42;98735.84;5084504;28;20408;-77
2021/10/02 07:01:05;;;;;;;7.20;0.98;;;;;;;10.33;75.95;98737.03;5086629;28;20048;-76
2021/10/02 07:03:32;;;;;;;4.70;0.88;;;;;;;10.33;76.08;98717.66;5086005;28;20068;-77
2021/10/02 07:05:58;;;;;;;4.35;0.85;;;;;;;10.33;76.40;98714.91;5084830;28;20420;-77
2021/10/02 07:08:25;;;;;;;6.97;1.20;;;;;;;10.34;76.50;98701.88;5085730;28;20042;-76
2021/10/02 07:10:52;;;;;;;7.00;0.88;;;;;;;10.34;76.69;98688.03;5086204;28;20066;-76
2021/10/02 07:13:19;;;;;;;5.00;0.60;;;;;;;10.35;76.72;98675.81;5085548;28;20113;-76
2021/10/02 07:15:45;;;;;;;6.07;0.98;;;;;;;10.36;76.90;98669.06;5085590;28;20118;-76
2021/10/02 07:18:13;;;;;;;6.63;0.90;;;;;;;10.35;77.00;98648.91;5084678;28;20032;-77
2021/10/02 07:20:40;;;;;;;7.53;0.90;;;;;;;10.35;77.40;98637.84;5085611;28;20036;-77
2021/10/02 07:23:07;;;;;;;12.45;1.60;;;;;;;10.35;77.82;98642.59;5096305;28;20052;-76
2021/10/02 07:25:33;;;;;;;2.17;1.08;;;;;;;10.35;77.97;98637.84;5084672;28;20051;-76
2021/10/02 07:28:00;;;;;;;5.07;1.17;;;;;;;10.32;78.19;98626.78;5086013;28;20835;-77
2021/10/02 07:30:28;;;;;;;4.72;0.70;;;;;;;10.29;78.40;98627.59;5087597;28;20063;-77
2021/10/02 07:32:54;;;;;;;7.40;0.95;;;;;;;10.29;78.12;98627.59;5087498;28;20058;-77
2021/10/02 07:35:21;;;;;;;2.53;0.88;;;;;;;10.30;78.27;98629.94;5089733;28;20036;-76
2021/10/02 07:37:49;;;;;;;7.93;0.95;;;;;;;10.27;78.03;98625.19;5080573;28;20059;-82
2021/10/02 07:40:16;;;;;;;3.00;1.00;;;;;;;10.26;78.19;98622.84;5088891;28;20132;-77
2021/10/02 07:42:49;;;;;;;7.07;1.20;;;;;;;10.23;78.37;98618.09;5088457;28;20105;-77
2021/10/02 07:45:20;;;;;;;7.38;0.88;;;;;;;10.22;78.15;98613.72;5102615;28;20484;-77
2021/10/02 07:47:51;;;;;;;3.00;0.80;;;;;;;10.21;78.76;98610.19;5088317;28;20036;-77
2021/10/02 07:50:19;;;;;;;5.22;0.70;;;;;;;10.26;78.63;98612.56;5090162;28;20288;-77
2021/10/02 07:52:50;;;;;;;3.60;1.13;;;;;;;10.31;78.66;98580.94;5087027;28;20108;-77
2021/10/02 07:55:19;;;;;;;5.72;0.55;;;;;;;10.38;79.01;98595.56;5088137;28;20032;-77
2021/10/02 07:57:47;;;;;;;1.40;0.50;;;;;;;10.47;79.08;98580.53;5088345;28;20040;-77
2021/10/02 08:00:18;;;;;;;6.43;0.73;;;;;;;10.51;79.26;98589.66;5088563;28;20078;-77
2021/10/02 08:02:47;;;;;;;7.45;1.15;;;;;;;10.55;79.27;98585.69;5088118;28;20396;-77
2021/10/02 08:05:15;;;;;;;2.35;0.60;;;;;;;10.61;79.20;98586.88;5086257;28;20036;-77
2021/10/02 08:07:45;;;;;;;1.88;0.40;;;;;;;10.66;79.45;98580.94;5087042;28;20151;-77
2021/10/02 08:10:14;;;;;;;1.75;0.63;;;;;;;10.72;79.05;98573.00;5085332;28;20051;-77
2021/10/02 08:12:41;;;;;;;6.15;1.85;;;;;;;10.74;79.11;98570.63;5083029;28;20071;-77
2021/10/02 08:15:09;;;;;;;5.40;0.60;;;;;;;10.78;78.91;98565.84;5087192;28;20405;-77
2021/10/02 08:17:37;;;;;;;1.77;0.43;;;;;;;10.80;79.07;98558.72;5070677;28;20368;-77
2021/10/02 08:20:10;;;;;;;3.28;0.90;;;;;;;10.83;79.01;98557.94;5088728;28;20089;-77
2021/10/02 08:22:43;;;;;;;3.63;1.30;;;;;;;10.85;78.98;98552.03;5087178;28;20506;-77
2021/10/02 08:25:11;;;;;;;3.35;0.63;;;;;;;10.90;78.88;98546.06;5088874;28;20047;-77
2021/10/02 08:27:40;;;;;;;1.30;0.40;;;;;;;10.93;78.60;98545.28;5088180;28;20054;-77
2021/10/02 08:30:09;;;;;;;2.53;0.50;;;;;;;10.95;78.33;98548.41;5086506;28;20040;-77
2021/10/02 08:32:36;;;;;;;1.33;0.40;;;;;;;10.96;78.08;98541.72;5087702;28;20039;-77
2021/10/02 08:35:05;;;;;;;1.05;0.70;;;;;;;10.98;77.99;98542.09;5086898;28;20048;-77
2021/10/02 08:37:32;;;;;;;1.75;0.22;;;;;;;11.04;77.70;98542.47;5085074;28;20051;-77
2021/10/02 08:39:59;;;;;;;0.63;0.30;;;;;;;11.09;77.33;98540.06;5087042;28;20071;-77
2021/10/02 08:42:27;;;;;;;2.35;0.60;;;;;;;11.17;77.48;98522.22;5090188;28;20043;-77
2021/10/02 08:44:55;;;;;;;4.70;0.60;;;;;;;11.24;77.35;98522.19;5088394;28;20058;-77
2021/10/02 08:47:23;;;;;;;2.38;0.40;;;;;;;11.30;77.15;98519.78;5087100;28;20499;-77
2021/10/02 08:49:51;;;;;;;1.38;0.40;;;;;;;11.32;77.06;98509.88;5086865;28;20047;-76
2021/10/02 08:52:22;;;;;;;2.20;0.47;;;;;;;11.37;76.88;98500.34;5085280;28;20506;-76
2021/10/02 08:54:49;;;;;;;4.05;1.85;;;;;;;11.45;76.75;98494.38;5083496;28;20048;-76
2021/10/02 08:57:21;;;;;;;1.73;0.68;;;;;;;11.55;76.82;98496.28;5085109;28;20092;-76
2021/10/02 08:59:50;;;;;;;2.83;0.52;;;;;;;11.67;76.57;98495.00;5086548;28;20043;-76
2021/10/02 09:02:17;;;;;;;4.68;1.38;;;;;;;11.74;76.15;98491.41;5086930;28;20068;-77
2021/10/02 09:04:45;;;;;;;8.30;0.82;;;;;;;11.79;75.90;98486.22;5085463;28;20395;-77
2021/10/02 09:07:15;;;;;;;6.50;0.70;;;;;;;11.83;75.81;98480.66;5086815;28;20036;-77
2021/10/02 09:09:44;;;;;;;3.63;0.70;;;;;;;11.94;75.72;98473.81;5088180;28;20035;-77
2021/10/02 09:12:11;;;;;;;4.93;0.55;;;;;;;12.02;75.49;98467.00;5089583;28;20044;-77
2021/10/02 09:14:38;;;;;;;6.53;1.08;;;;;;;12.13;75.19;98475.25;5088728;28;20736;-77
2021/10/02 09:17:05;;;;;;;5.72;0.77;;;;;;;12.19;75.03;98459.72;5088699;28;20549;-77
2021/10/02 09:19:33;;;;;;;9.48;0.93;;;;;;;12.25;74.69;98465.63;5087169;28;20511;-77
2021/10/02 09:22:04;;;;;;;4.30;1.30;;;;;;;12.25;74.25;98466.41;5089151;28;20050;-77
2021/10/02 09:24:40;;;;;;;2.33;0.70;;;;;;;12.24;74.11;98467.59;5086529;28;20059;-77
2021/10/02 09:27:30;;;;;;;4.00;0.70;;;;;;;12.20;73.44;98450.22;5088651;28;20036;-77
2021/10/02 09:30:15;;;;;;;2.38;0.75;;;;;;;12.20;72.88;98450.22;5090175;28;20040;-76
2021/10/02 09:32:44;;;;;;;8.95;0.80;;;;;;;12.21;73.63;98451.78;5085544;28;20048;-78
2021/10/02 09:35:15;;;;;;;4.28;1.10;;;;;;;12.21;72.96;98440.69;5084425;28;20036;-78
2021/10/02 09:37:45;;;;;;;3.95;0.50;;;;;;;12.19;72.77;98443.09;5085409;28;20046;-78
2021/10/02 09:40:18;;;;;;;3.47;1.40;;;;;;;12.16;72.91;98432.81;5083577;28;20052;-77
2021/10/02 09:42:56;;;;;;;6.35;1.38;;;;;;;12.16;72.84;98428.06;5084439;28;20043;-78
2021/10/02 09:45:30;;;;;;;4.35;0.90;;;;;;;12.15;72.38;98434.78;5085818;28;20122;-77
2021/10/02 09:47:59;;;;;;;5.20;0.70;;;;;;;12.14;72.68;98426.91;5088866;28;20036;-78
2021/10/02 09:50:31;;;;;;;9.15;0.90;;;;;;;12.17;72.75;98413.00;5084042;28;20119;-78
2021/10/02 09:53:09;;;;;;;3.17;0.70;;;;;;;12.25;72.64;98421.25;5085013;28;20051;-78
2021/10/02 09:55:44;;;;;;;5.57;1.40;;;;;;;12.28;72.64;98424.00;5084999;28;20044;-78
2021/10/02 09:58:27;;;;;;;2.28;0.52;;;;;;;12.31;72.56;98417.59;5084195;28;20573;-77
2021/10/02 10:00:55;;;;;;;2.70;0.55;;;;;;;12.33;72.37;98417.97;5081332;28;20530;-78
2021/10/02 10:03:23;;;;;;;2.90;0.65;;;;;;;12.36;72.49;98414.38;5081571;28;20048;-77
2021/10/02 10:05:53;;;;;;;6.32;1.17;;;;;;;12.39;72.11;98407.97;5100237;28;20043;-77
2021/10/02 10:08:26;;;;;;;5.25;0.90;;;;;;;12.45;72.22;98409.13;5066027;28;20036;-77
2021/10/02 10:11:08;;;;;;;5.88;0.90;;;;;;;12.46;71.62;98402.38;5084391;28;20089;-78
2021/10/02 10:13:35;;;;;;;7.90;1.83;;;;;;;12.50;71.98;98403.09;5081478;28;20130;-78
2021/10/02 10:16:07;;;;;;;5.43;1.60;;;;;;;12.52;71.64;98391.59;5080510;28;20048;-78
2021/10/02 10:18:38;;;;;;;2.63;0.93;;;;;;;12.58;71.72;98393.50;5082990;28;20032;-78
2021/10/02 10:21:08;;;;;;;1.83;0.70;;;;;;;12.62;71.56;98388.69;5084311;28;20044;-78
2021/10/02 10:23:47;;;;;;;6.75;0.90;;;;;;;12.77;71.61;98384.53;5083057;28;20044;-78
2021/10/02 10:26:17;;;;;;;3.63;0.63;;;;;;;12.97;71.70;98386.66;5081784;28;20032;-78
2021/10/02 10:28:49;;;;;;;5.45;0.80;;;;;;;13.24;71.10;98368.00;5082973;28;20145;-77
2021/10/02 10:31:17;;;;;;;;;;;;;;;13.69;69.60;98362.91;5085003;28;20051;-78
2021/10/02 10:33:52;;;;;;;3.42;0.70;;;;;;;13.87;70.41;98361.38;5082087;28;19928;-78
2021/10/02 10:36:20;;;;;;;5.18;1.17;;;;;;;13.88;70.37;98359.38;5079330;28;20044;-78
2021/10/02 10:38:49;;;;;;;6.32;0.60;;;;;;;13.78;69.98;98344.47;5082828;28;20060;-77
2021/10/02 10:41:19;;;;;;;4.93;0.82;;;;;;;13.65;69.55;98349.06;5081962;28;20040;-80
2021/10/02 10:43:48;;;;;;;5.30;0.95;;;;;;;13.57;69.77;98335.72;5077828;28;20047;-79
2021/10/02 10:46:19;;;;;;;5.15;1.00;;;;;;;13.51;69.28;98331.84;5080915;28;20123;-77
2021/10/02 10:48:46;;;;;;;2.33;0.85;;;;;;;13.40;68.92;98332.81;5083917;28;20454;-78
2021/10/02 10:51:18;;;;;;;5.45;0.82;;;;;;;13.33;68.84;98335.72;5085456;28;20537;-78
2021/10/02 10:53:51;;;;;;;4.40;1.02;;;;;;;13.30;68.50;98341.31;5085748;28;20044;-79
2021/10/02 10:56:42;;;;;;;3.45;0.90;;;;;;;13.25;67.95;98320.38;5067496;28;20043;-78
2021/10/02 10:59:10;;;;;;;4.53;1.00;;;;;;;13.26;68.75;98327.47;5083277;28;20044;-78
2021/10/02 11:01:39;;;;;;;2.65;0.73;;;;;;;13.30;68.64;98328.22;5086542;28;20115;-78
2021/10/02 11:04:27;;;;;;;3.55;0.82;;;;;;;13.29;68.81;98331.44;5089752;28;20044;-78
2021/10/02 11:06:59;;;;;;;2.83;0.68;;;;;;;13.28;68.59;98327.06;5101870;28;20048;-78
2021/10/02 11:09:43;;;;;;;4.20;1.08;;;;;;;13.30;67.84;98322.66;5086397;28;20079;-78
2021/10/02 11:12:14;;;;;;;7.22;1.52;;;;;;;13.31;68.23;98317.88;5088524;28;20054;-78
2021/10/02 11:14:47;;;;;;;1.45;0.52;;;;;;;13.43;67.96;98320.84;5089151;28;20381;-78
2021/10/02 11:17:35;;;;;;;1.95;0.55;;;;;;;13.66;67.96;98319.28;5090605;28;20036;-78
2021/10/02 11:20:17;;;;;;;3.90;1.10;;;;;;;13.91;66.26;98317.59;5089340;28;20043;-78
2021/10/02 11:23:21;;;;;;;4.85;0.82;;;;;;;14.08;65.71;98321.25;5086507;28;20040;-78
2021/10/02 11:26:17;;;;;;;2.00;0.50;;;;;;;14.19;65.45;98309.94;5087621;28;20040;-78
2021/10/02 11:28:49;;;;;;;4.88;1.13;;;;;;;14.34;66.65;98308.44;5089136;28;20120;-78
2021/10/02 11:31:19;;;;;;;4.43;0.75;;;;;;;14.48;66.40;98299.81;5087612;28;20050;-78
2021/10/02 11:33:54;;;;;;;5.35;0.70;;;;;;;14.51;65.57;98298.91;5089090;28;20047;-78
2021/10/02 11:36:35;;;;;;;4.35;0.45;;;;;;;14.38;66.66;98300.78;5088840;28;20059;-78
2021/10/02 11:39:08;;;;;;;2.28;0.88;;;;;;;14.20;66.65;98283.66;5087515;28;20334;-78
2021/10/02 11:41:57;;;;;;;4.88;0.75;;;;;;;13.99;67.40;98279.31;5089927;28;20040;-79
2021/10/02 11:44:33;;;;;;;3.78;0.80;;;;;;;13.93;67.79;98281.78;5084874;28;20078;-79
2021/10/02 11:47:38;;;;;;;1.65;0.65;;;;;;;13.89;66.97;98289.44;5089016;28;20040;-79
2021/10/02 11:50:07;;;;;;;1.73;0.60;;;;;;;13.80;67.34;98289.19;5088000;28;20040;-79
2021/10/02 11:52:36;;;;;;;10.52;1.65;;;;;;;13.75;67.35;98297.25;5071616;28;20071;-78
2021/10/02 11:55:35;;;;;;;5.45;1.20;;;;;;;13.71;67.35;98291.78;5088265;28;20482;-79
2021/10/02 11:58:08;;;;;;;2.53;0.50;;;;;;;13.68;67.38;98311.28;5088025;28;20134;-78
2021/10/02 12:00:39;;;;;;;2.90;0.63;;;;;;;13.53;67.50;98307.97;5087792;28;20079;-79
2021/10/02 12:03:06;;;;;;;2.97;0.60;;;;;;;13.11;67.68;98312.25;5087324;28;20480;-78
2021/10/02 12:05:33;;;;;;;5.78;0.88;;;;;;;12.93;68.39;98313.69;5088528;28;20044;-78
2021/10/02 12:08:00;;;;;;;2.60;0.32;;;;;;;12.89;69.16;98310.19;5088917;28;20036;-76
2021/10/02 12:10:28;;;;;;;1.30;0.38;;;;;;;12.90;69.71;98308.97;5088349;28;20050;-77
2021/10/02 12:13:25;;;;;;;1.25;0.22;;;;;;;12.99;71.31;98306.47;5088867;28;20126;-77
2021/10/02 12:16:08;;;;;;;1.88;0.88;;;;;;;13.13;70.53;98297.94;5089012;28;20040;-77
2021/10/02 12:18:47;;;;;;;1.60;0.40;;;;;;;13.04;70.29;98297.66;5085753;28;20069;-76
2021/10/02 12:21:23;;;;;;;2.65;0.50;;;;;;;12.98;70.06;98294.56;5088937;28;20036;-76
2021/10/02 12:23:59;;;;;;;1.25;0.20;;;;;;;12.96;70.26;98293.41;5088226;28;20044;-77
2021/10/02 12:26:26;;;;;;;1.42;0.50;;;;;;;13.13;70.25;98292.41;5088962;28;20044;-76
2021/10/02 12:28:57;;;;;;;1.70;0.20;;;;;;;13.17;69.80;98298.66;5088551;28;20404;-77
2021/10/02 12:31:40;;;;;;;3.40;0.30;;;;;;;13.11;70.15;98292.00;5087252;28;20970;-77
2021/10/02 12:34:14;;;;;;;1.25;0.70;;;;;;;13.12;69.95;98285.25;5088794;28;20766;-76
2021/10/02 12:36:44;;;;;;;2.60;0.50;;;;;;;13.21;70.29;98285.50;5088258;28;20124;-76
2021/10/02 12:39:12;;;;;;;1.95;0.43;;;;;;;13.51;70.26;98279.81;5086733;28;20059;-77
2021/10/02 12:41:43;;;;;;;0.38;0.20;;;;;;;13.70;69.95;98286.63;5086185;28;20046;-77
2021/10/02 12:44:21;;;;;;;1.83;0.50;;;;;;;13.64;69.08;98279.97;5067689;28;20059;-77